Time;durP1;ratioP1;P1;durP2;ratioP2;P2;SDS_P1;SDS_P2;PMS_P1;PMS_P2;Temp;Humidity;BMP_temperature;BMP_pressure;BME280_temperature;BME280_humidity;BME280_pressure;Samples;Min_cycle;Max_cycle;Signal;HPM_P1;HPM_P2
2023/05/07 00:01:31;;;;;;;2.60;2.47;;;16.80;99.90;;;;;;5058627;28;20229;-73
2023/05/07 00:03:59;;;;;;;3.10;2.85;;;16.80;99.90;;;;;;5058390;28;20622;-72
2023/05/07 00:06:28;;;;;;;2.97;2.78;;;16.80;99.90;;;;;;5056607;28;20334;-73
2023/05/07 00:08:55;;;;;;;2.70;2.50;;;16.80;99.90;;;;;;5061523;28;20206;-71
2023/05/07 00:11:22;;;;;;;3.30;3.10;;;16.70;99.90;;;;;;5060935;28;20305;-73
2023/05/07 00:13:49;;;;;;;3.17;2.97;;;16.80;99.90;;;;;;5084950;28;20194;-72
2023/05/07 00:16:16;;;;;;;3.22;3.03;;;16.70;99.90;;;;;;5061122;28;20283;-75
2023/05/07 00:18:43;;;;;;;3.10;2.90;;;16.70;99.90;;;;;;5059451;28;20206;-71
2023/05/07 00:21:11;;;;;;;3.25;3.05;;;16.60;99.90;;;;;;5059091;28;20277;-72
2023/05/07 00:23:38;;;;;;;2.92;2.72;;;16.60;99.90;;;;;;5058179;28;20312;-74
2023/05/07 00:26:05;;;;;;;3.33;3.13;;;16.60;99.90;;;;;;5058490;28;20289;-73
2023/05/07 00:28:32;;;;;;;2.67;2.50;;;16.60;99.90;;;;;;5055283;28;20326;-72
2023/05/07 00:30:59;;;;;;;3.35;3.05;;;16.60;99.90;;;;;;5058194;28;20266;-74
2023/05/07 00:33:26;;;;;;;3.20;3.00;;;16.50;99.90;;;;;;5057237;28;20221;-72
2023/05/07 00:35:55;;;;;;;3.40;3.10;;;16.60;99.90;;;;;;5060643;28;20213;-73
2023/05/07 00:38:23;;;;;;;3.10;2.90;;;16.60;99.90;;;;;;5055547;28;20704;-73
2023/05/07 00:40:51;;;;;;;3.05;2.85;;;16.50;99.90;;;;;;5059827;28;20225;-73
2023/05/07 00:43:18;;;;;;;2.97;2.78;;;16.50;99.90;;;;;;5057415;28;20222;-72
2023/05/07 00:45:45;;;;;;;3.15;2.85;;;16.50;99.90;;;;;;5056911;28;20210;-72
2023/05/07 00:48:12;;;;;;;3.10;2.90;;;16.50;99.90;;;;;;5057854;28;20194;-73
2023/05/07 00:50:40;;;;;;;3.00;2.80;;;16.50;99.90;;;;;;5058169;28;20287;-74
2023/05/07 00:53:08;;;;;;;2.88;2.70;;;16.60;99.90;;;;;;5057563;28;20258;-72
2023/05/07 00:55:37;;;;;;;2.90;2.70;;;16.50;99.90;;;;;;5059192;28;20722;-73
2023/05/07 00:58:04;;;;;;;2.60;2.50;;;16.50;99.90;;;;;;5057516;28;20212;-73
2023/05/07 01:00:31;;;;;;;2.72;2.53;;;16.50;99.90;;;;;;5058605;28;20252;-72
2023/05/07 01:02:58;;;;;;;2.70;2.55;;;16.50;99.90;;;;;;5058304;28;20893;-73
2023/05/07 01:05:27;;;;;;;2.90;2.70;;;16.50;99.90;;;;;;5061092;28;20210;-73
2023/05/07 01:07:55;;;;;;;2.95;2.75;;;16.50;99.90;;;;;;5060234;28;20233;-74
2023/05/07 01:10:23;;;;;;;3.00;2.80;;;16.40;99.90;;;;;;5059467;28;20837;-74
2023/05/07 01:12:52;;;;;;;2.92;2.72;;;16.40;99.90;;;;;;5063185;28;20258;-73
2023/05/07 01:15:20;;;;;;;4.03;3.17;;;16.40;99.90;;;;;;5062234;28;20704;-74
2023/05/07 01:17:47;;;;;;;3.15;2.95;;;16.40;99.90;;;;;;5058862;28;20241;-74
2023/05/07 01:20:15;;;;;;;3.58;3.28;;;16.30;99.90;;;;;;5062180;28;20774;-74
2023/05/07 01:22:44;;;;;;;2.88;2.67;;;16.30;99.90;;;;;;5058872;28;20794;-73
2023/05/07 01:25:11;;;;;;;3.05;2.85;;;16.30;99.90;;;;;;5058704;28;20210;-73
2023/05/07 01:27:38;;;;;;;2.80;2.60;;;16.30;99.90;;;;;;5062045;28;20289;-74
2023/05/07 01:30:06;;;;;;;3.08;2.88;;;16.30;99.90;;;;;;5064042;28;20257;-73
2023/05/07 01:32:37;;;;;;;3.50;3.28;;;16.30;99.90;;;;;;5060234;28;20279;-72
2023/05/07 01:35:06;;;;;;;3.28;3.00;;;16.30;99.90;;;;;;5059266;28;20340;-73
2023/05/07 01:37:33;;;;;;;3.50;3.20;;;16.30;99.90;;;;;;5060523;28;20438;-72
2023/05/07 01:40:02;;;;;;;2.90;2.58;;;16.30;99.90;;;;;;5059980;28;20290;-73
2023/05/07 01:42:30;;;;;;;3.42;3.13;;;16.30;99.90;;;;;;5062530;28;20222;-73
2023/05/07 01:44:57;;;;;;;3.22;3.03;;;16.30;99.90;;;;;;5062240;28;20880;-73
2023/05/07 01:47:25;;;;;;;3.30;3.10;;;16.30;99.90;;;;;;5063011;28;20202;-74
2023/05/07 01:49:52;;;;;;;3.20;3.00;;;16.20;99.90;;;;;;5063158;28;20202;-73
2023/05/07 01:52:19;;;;;;;2.63;2.50;;;16.30;99.90;;;;;;5064335;28;20313;-74
2023/05/07 01:54:45;;;;;;;3.03;2.83;;;16.20;99.90;;;;;;5060485;28;20232;-73
2023/05/07 01:57:14;;;;;;;2.95;2.75;;;16.20;99.90;;;;;;5064329;28;20194;-73
2023/05/07 01:59:41;;;;;;;2.80;2.60;;;16.20;99.90;;;;;;5072946;28;20202;-74
2023/05/07 02:02:07;;;;;;;2.88;2.67;;;16.10;99.90;;;;;;5075159;28;20214;-73
2023/05/07 02:04:35;;;;;;;2.80;2.60;;;16.10;99.90;;;;;;5058473;28;20233;-73
2023/05/07 02:07:01;;;;;;;2.70;2.50;;;16.10;99.90;;;;;;5057323;28;20202;-73
2023/05/07 02:09:28;;;;;;;2.92;2.72;;;16.10;99.90;;;;;;5062449;28;20202;-74
2023/05/07 02:11:56;;;;;;;3.15;2.95;;;16.10;99.90;;;;;;5061424;28;20724;-74
2023/05/07 02:14:25;;;;;;;3.20;3.00;;;16.00;99.90;;;;;;5060672;28;20257;-73
2023/05/07 02:16:52;;;;;;;2.80;2.60;;;16.00;99.90;;;;;;5062070;28;20205;-75
2023/05/07 02:19:20;;;;;;;2.95;2.75;;;16.00;99.90;;;;;;5061409;28;20244;-74
2023/05/07 02:21:48;;;;;;;3.10;2.90;;;15.90;99.90;;;;;;5059659;28;20249;-73
2023/05/07 02:24:15;;;;;;;3.10;2.90;;;15.90;99.90;;;;;;5062633;28;20209;-73
2023/05/07 02:26:42;;;;;;;3.25;3.05;;;15.90;99.90;;;;;;5062419;28;20766;-72
2023/05/07 02:29:09;;;;;;;3.15;2.95;;;15.90;99.90;;;;;;5062530;28;20234;-73
2023/05/07 02:31:37;;;;;;;3.08;2.88;;;15.80;99.90;;;;;;5062167;28;20302;-73
2023/05/07 02:34:04;;;;;;;3.20;3.00;;;15.70;99.90;;;;;;5064404;28;20244;-72
2023/05/07 02:36:31;;;;;;;3.17;2.78;;;15.70;99.90;;;;;;5062347;28;20238;-73
2023/05/07 02:38:58;;;;;;;3.03;2.83;;;15.70;99.90;;;;;;5062670;28;20202;-73
2023/05/07 02:41:25;;;;;;;3.05;2.85;;;15.70;99.90;;;;;;5062934;28;22643;-71
2023/05/07 02:43:52;;;;;;;2.53;2.42;;;15.60;99.90;;;;;;5063540;28;20206;-73
2023/05/07 02:46:19;;;;;;;2.78;2.58;;;15.60;99.90;;;;;;5062514;28;20583;-72
2023/05/07 02:48:47;;;;;;;3.17;2.92;;;15.60;99.90;;;;;;5062927;28;20230;-73
2023/05/07 02:51:14;;;;;;;2.78;2.65;;;15.60;99.90;;;;;;5064580;28;20214;-73
2023/05/07 02:53:41;;;;;;;2.95;2.75;;;15.60;99.90;;;;;;5063231;28;20293;-73
2023/05/07 02:56:08;;;;;;;3.08;2.83;;;15.60;99.90;;;;;;5063587;28;20227;-73
2023/05/07 02:58:35;;;;;;;3.10;2.90;;;15.60;99.90;;;;;;5056554;28;20220;-73
2023/05/07 03:01:02;;;;;;;3.00;2.80;;;15.50;99.90;;;;;;5059794;28;20231;-71
2023/05/07 03:03:29;;;;;;;3.35;3.05;;;15.50;99.90;;;;;;5063614;28;20246;-75
2023/05/07 03:05:57;;;;;;;3.28;3.08;;;15.40;99.90;;;;;;5060288;28;20194;-73
2023/05/07 03:08:24;;;;;;;3.20;3.00;;;15.40;99.90;;;;;;5061466;28;20226;-72
2023/05/07 03:10:51;;;;;;;3.10;2.90;;;15.40;99.90;;;;;;5059506;28;20303;-75
2023/05/07 03:13:19;;;;;;;2.90;2.70;;;15.30;99.90;;;;;;5063948;28;20222;-73
2023/05/07 03:15:45;;;;;;;2.83;2.63;;;15.30;99.90;;;;;;5062712;28;20198;-72
2023/05/07 03:18:12;;;;;;;3.20;3.00;;;15.30;99.90;;;;;;5062551;28;20221;-74
2023/05/07 03:20:39;;;;;;;3.45;3.10;;;15.30;99.90;;;;;;5062115;28;20226;-74
2023/05/07 03:23:07;;;;;;;2.92;2.72;;;15.30;99.90;;;;;;5061671;28;20275;-71
2023/05/07 03:25:34;;;;;;;2.90;2.70;;;15.30;99.90;;;;;;5063733;28;20279;-73
2023/05/07 03:28:01;;;;;;;3.10;2.90;;;15.30;99.90;;;;;;5065162;28;20210;-74
2023/05/07 03:30:28;;;;;;;3.10;2.90;;;15.30;99.90;;;;;;5063223;28;20280;-73
2023/05/07 03:32:55;;;;;;;2.40;2.30;;;15.30;99.90;;;;;;5058382;28;20876;-71
2023/05/07 03:35:22;;;;;;;2.80;2.60;;;15.30;99.90;;;;;;5066976;28;20265;-73
2023/05/07 03:37:49;;;;;;;2.95;2.75;;;15.20;99.90;;;;;;5060328;28;20206;-73
2023/05/07 03:40:17;;;;;;;3.10;2.90;;;15.20;99.90;;;;;;5059836;28;20930;-74
2023/05/07 03:42:44;;;;;;;3.33;3.03;;;15.20;99.90;;;;;;5060251;28;20264;-73
2023/05/07 03:45:11;;;;;;;3.00;2.80;;;15.10;99.90;;;;;;5062188;28;20202;-72
2023/05/07 03:47:38;;;;;;;2.00;1.90;;;15.10;99.90;;;;;;5073835;28;20194;-73
2023/05/07 03:50:06;;;;;;;2.25;2.15;;;15.10;99.90;;;;;;5078151;28;20780;-73
2023/05/07 03:52:33;;;;;;;3.00;2.80;;;15.10;99.90;;;;;;5062684;28;20253;-72
2023/05/07 03:55:00;;;;;;;2.83;2.63;;;15.10;99.90;;;;;;5061873;28;20274;-72
2023/05/07 03:57:28;;;;;;;3.10;2.90;;;15.10;99.90;;;;;;5058468;28;20229;-73
2023/05/07 03:59:55;;;;;;;3.00;2.80;;;15.00;99.90;;;;;;5059564;28;20238;-74
2023/05/07 04:02:22;;;;;;;3.10;2.90;;;15.00;99.90;;;;;;5059410;28;20214;-73
2023/05/07 04:04:49;;;;;;;2.53;2.42;;;15.00;99.90;;;;;;5062891;28;20263;-74
2023/05/07 04:07:16;;;;;;;2.65;2.45;;;15.00;99.90;;;;;;5058491;28;20199;-72
2023/05/07 04:09:43;;;;;;;2.35;2.20;;;15.00;99.90;;;;;;5063925;28;20286;-73
2023/05/07 04:12:10;;;;;;;3.08;2.47;;;15.00;99.90;;;;;;5059549;28;20316;-74
2023/05/07 04:14:39;;;;;;;2.58;2.38;;;15.00;99.90;;;;;;5058382;28;20816;-73
2023/05/07 04:17:06;;;;;;;2.10;2.00;;;15.10;99.90;;;;;;5061549;28;20254;-74
2023/05/07 04:19:34;;;;;;;2.40;2.20;;;15.10;99.90;;;;;;5061138;28;20198;-72
2023/05/07 04:22:01;;;;;;;2.10;2.00;;;15.20;99.90;;;;;;5061460;28;20237;-73
2023/05/07 04:24:28;;;;;;;2.03;1.92;;;15.20;99.90;;;;;;5060644;28;20735;-73
2023/05/07 04:26:56;;;;;;;1.92;1.83;;;15.30;99.90;;;;;;5063371;28;20198;-73
2023/05/07 04:29:22;;;;;;;2.13;2.03;;;15.30;99.90;;;;;;5060525;28;20229;-73
2023/05/07 04:31:51;;;;;;;2.17;2.08;;;15.40;99.90;;;;;;5061367;28;20223;-72
2023/05/07 04:34:18;;;;;;;2.28;2.10;;;15.40;99.90;;;;;;5054288;28;20198;-72
2023/05/07 04:36:46;;;;;;;2.40;2.20;;;15.40;99.90;;;;;;5059436;28;20257;-74
2023/05/07 04:39:12;;;;;;;2.13;2.03;;;15.40;99.90;;;;;;5059211;28;20691;-73
2023/05/07 04:41:40;;;;;;;2.60;2.40;;;15.50;99.90;;;;;;5062746;28;20244;-73
2023/05/07 04:44:07;;;;;;;2.17;2.05;;;15.50;99.90;;;;;;5065871;28;20274;-71
2023/05/07 04:46:33;;;;;;;2.30;2.20;;;15.50;99.90;;;;;;5064818;28;20251;-72
2023/05/07 04:49:03;;;;;;;2.08;1.98;;;15.40;99.90;;;;;;5067117;28;20249;-74
2023/05/07 04:51:30;;;;;;;2.50;2.30;;;15.40;99.90;;;;;;5066133;28;20214;-74
2023/05/07 04:53:57;;;;;;;2.10;2.00;;;15.40;99.90;;;;;;5062006;28;20205;-72
2023/05/07 04:56:24;;;;;;;2.75;1.98;;;15.40;99.90;;;;;;5066207;28;20830;-74
2023/05/07 04:58:51;;;;;;;2.17;2.08;;;15.50;99.90;;;;;;5065380;28;20198;-73
2023/05/07 05:01:17;;;;;;;2.22;2.10;;;15.50;99.90;;;;;;5063609;28;20233;-74
2023/05/07 05:03:44;;;;;;;2.38;2.10;;;15.50;99.90;;;;;;5066491;28;20828;-72
2023/05/07 05:06:13;;;;;;;2.53;2.33;;;15.60;99.90;;;;;;5060092;28;20226;-72
2023/05/07 05:08:40;;;;;;;2.30;2.20;;;15.70;99.90;;;;;;5057456;28;20198;-74
2023/05/07 05:11:07;;;;;;;2.55;2.35;;;15.60;99.90;;;;;;5061796;28;20249;-73
2023/05/07 05:13:34;;;;;;;2.40;2.20;;;15.60;99.90;;;;;;5066181;28;20218;-73
2023/05/07 05:16:01;;;;;;;2.40;2.20;;;15.50;99.90;;;;;;5062006;28;20206;-73
2023/05/07 05:18:28;;;;;;;2.30;2.20;;;15.50;99.90;;;;;;5063069;28;20240;-72
2023/05/07 05:20:55;;;;;;;2.10;2.00;;;15.40;99.90;;;;;;5064433;28;20265;-73
2023/05/07 05:23:23;;;;;;;2.40;2.30;;;15.30;99.90;;;;;;5065251;28;20226;-72
2023/05/07 05:25:50;;;;;;;2.03;1.92;;;15.30;99.90;;;;;;5064027;28;20264;-73
2023/05/07 05:28:17;;;;;;;2.35;2.25;;;15.40;99.90;;;;;;5060680;28;20892;-73
2023/05/07 05:30:43;;;;;;;2.13;2.03;;;15.60;99.90;;;;;;5065039;28;20233;-72
2023/05/07 05:33:10;;;;;;;2.83;2.63;;;15.90;99.90;;;;;;5062250;28;20253;-73
2023/05/07 05:35:37;;;;;;;2.47;2.38;;;16.20;99.90;;;;;;5075119;28;20218;-75
2023/05/07 05:38:04;;;;;;;2.30;2.08;;;16.50;99.90;;;;;;5079340;28;20198;-73
2023/05/07 05:40:33;;;;;;;2.10;2.00;;;16.80;99.90;;;;;;5064282;28;20199;-71
2023/05/07 05:43:00;;;;;;;2.22;2.08;;;17.10;99.90;;;;;;5062061;28;20252;-74
2023/05/07 05:45:27;;;;;;;6.95;2.60;;;17.40;99.90;;;;;;5065164;28;20289;-73
2023/05/07 05:47:53;;;;;;;1.70;1.60;;;17.70;99.90;;;;;;5061626;28;20195;-73
2023/05/07 05:50:21;;;;;;;1.92;1.60;;;17.90;99.90;;;;;;5065078;28;20252;-73
2023/05/07 05:52:48;;;;;;;2.10;1.95;;;18.10;99.90;;;;;;5061370;28;20218;-73
2023/05/07 05:55:15;;;;;;;1.95;1.85;;;18.20;99.90;;;;;;5060771;28;20197;-73
2023/05/07 05:57:43;;;;;;;4.25;1.77;;;17.90;99.90;;;;;;5060675;28;20289;-73
2023/05/07 06:00:11;;;;;;;2.75;1.92;;;17.40;99.90;;;;;;5063584;28;20199;-74
2023/05/07 06:02:38;;;;;;;2.47;1.95;;;17.00;99.90;;;;;;5062450;28;20306;-72
2023/05/07 06:05:06;;;;;;;2.50;2.30;;;16.70;99.90;;;;;;5061702;28;20241;-74
2023/05/07 06:07:33;;;;;;;1.95;1.85;;;16.50;99.90;;;;;;5061059;28;20294;-72
2023/05/07 06:10:00;;;;;;;1.70;1.60;;;16.50;99.90;;;;;;5060006;28;20297;-73
2023/05/07 06:12:27;;;;;;;1.92;1.83;;;16.60;99.90;;;;;;5062200;28;20244;-74
2023/05/07 06:14:55;;;;;;;1.90;1.80;;;16.90;99.90;;;;;;5061691;28;20198;-72
2023/05/07 06:17:22;;;;;;;2.05;1.88;;;17.30;99.90;;;;;;5063301;28;20195;-72
2023/05/07 06:19:49;;;;;;;3.15;1.98;;;17.50;99.90;;;;;;5064216;28;20285;-72
2023/05/07 06:22:16;;;;;;;1.67;1.58;;;17.50;99.90;;;;;;5062664;28;20223;-73
2023/05/07 06:24:43;;;;;;;2.83;1.60;;;17.40;99.90;;;;;;5062391;28;20198;-72
2023/05/07 06:27:09;;;;;;;2.10;1.40;;;17.50;99.90;;;;;;5061129;28;20225;-72
2023/05/07 06:29:36;;;;;;;1.73;1.60;;;17.50;99.90;;;;;;5060506;28;20322;-72
2023/05/07 06:32:12;;;;;;;1.88;1.75;;;17.50;99.90;;;;;;5063025;28;20708;-74
2023/05/07 06:34:40;;;;;;;1.35;1.25;;;17.50;99.90;;;;;;5060265;28;20256;-74
2023/05/07 06:37:08;;;;;;;1.48;1.38;;;17.60;99.90;;;;;;5061857;28;20293;-71
2023/05/07 06:39:35;;;;;;;1.58;1.48;;;17.70;99.90;;;;;;5062563;28;20206;-73
2023/05/07 06:42:02;;;;;;;1.40;1.30;;;18.00;99.90;;;;;;5062173;28;20272;-73
2023/05/07 06:44:29;;;;;;;1.40;1.30;;;18.50;99.90;;;;;;5058459;28;20210;-73
2023/05/07 06:46:56;;;;;;;1.73;1.60;;;19.00;99.90;;;;;;5061301;28;20689;-72
2023/05/07 06:49:24;;;;;;;1.80;1.70;;;19.10;99.90;;;;;;5063207;28;20241;-73
2023/05/07 06:51:51;;;;;;;3.20;1.60;;;19.10;99.90;;;;;;5059360;28;20222;-73
2023/05/07 06:54:18;;;;;;;3.22;1.88;;;19.30;99.90;;;;;;5063385;28;20202;-75
2023/05/07 06:56:45;;;;;;;2.05;1.80;;;19.40;99.90;;;;;;5059432;28;20209;-73
2023/05/07 06:59:12;;;;;;;1.50;1.40;;;19.40;99.90;;;;;;5061892;28;20221;-73
2023/05/07 07:01:39;;;;;;;1.60;1.50;;;19.50;99.90;;;;;;5058613;28;20655;-73
2023/05/07 07:04:06;;;;;;;1.60;1.45;;;19.80;99.90;;;;;;5059873;28;20658;-74
2023/05/07 07:06:34;;;;;;;1.70;1.60;;;19.90;99.90;;;;;;5060778;28;20878;-71
2023/05/07 07:09:01;;;;;;;2.75;1.80;;;19.80;99.90;;;;;;5057284;28;20242;-73
2023/05/07 07:11:28;;;;;;;1.60;1.50;;;19.60;99.90;;;;;;5059390;28;20206;-74
2023/05/07 07:13:55;;;;;;;2.50;1.58;;;19.60;99.90;;;;;;5063888;28;20194;-74
2023/05/07 07:16:22;;;;;;;1.75;1.65;;;19.50;99.90;;;;;;5061234;28;20226;-73
2023/05/07 07:18:49;;;;;;;1.85;1.70;;;19.40;99.90;;;;;;5062705;28;20240;-73
2023/05/07 07:21:16;;;;;;;1.70;1.60;;;19.40;99.90;;;;;;5059682;28;20497;-73
2023/05/07 07:23:44;;;;;;;1.85;1.60;;;19.60;99.90;;;;;;5058323;28;20306;-76
2023/05/07 07:26:11;;;;;;;2.20;2.00;;;19.70;99.90;;;;;;5083897;28;20197;-74
2023/05/07 07:28:43;;;;;;;1.90;1.73;;;19.70;99.90;;;;;;5061286;28;20311;-73
2023/05/07 07:31:10;;;;;;;2.08;1.77;;;19.80;99.90;;;;;;5061890;28;20206;-73
2023/05/07 07:33:37;;;;;;;1.80;1.70;;;19.70;99.90;;;;;;5061044;28;20236;-74
2023/05/07 07:36:05;;;;;;;2.03;1.65;;;19.70;99.90;;;;;;5061798;28;20847;-74
2023/05/07 07:38:32;;;;;;;1.65;1.55;;;20.00;99.90;;;;;;5064308;28;20226;-72
2023/05/07 07:41:01;;;;;;;1.95;1.85;;;20.20;99.90;;;;;;5059170;28;20290;-73
2023/05/07 07:43:28;;;;;;;1.80;1.70;;;20.40;99.90;;;;;;5059462;28;20230;-74
2023/05/07 07:45:55;;;;;;;2.33;1.88;;;20.40;99.90;;;;;;5063291;28;20201;-72
2023/05/07 07:48:22;;;;;;;2.47;1.70;;;20.50;99.90;;;;;;5061650;28;20285;-74
2023/05/07 07:50:50;;;;;;;2.22;1.95;;;20.90;99.90;;;;;;5062729;28;20758;-73
2023/05/07 07:53:18;;;;;;;1.75;1.65;;;20.90;99.90;;;;;;5060927;28;20222;-74
2023/05/07 07:55:45;;;;;;;2.90;1.77;;;21.00;99.90;;;;;;5062280;28;20226;-73
2023/05/07 07:58:13;;;;;;;2.15;1.83;;;21.30;99.90;;;;;;5056531;28;20209;-75
2023/05/07 08:00:40;;;;;;;3.97;1.90;;;21.40;99.90;;;;;;5058133;28;20237;-73
2023/05/07 08:03:10;;;;;;;2.40;2.20;;;21.30;99.90;;;;;;5060918;28;20241;-76
2023/05/07 08:05:38;;;;;;;1.85;1.75;;;21.30;99.90;;;;;;5060930;28;20198;-75
2023/05/07 08:08:05;;;;;;;1.80;1.70;;;21.00;99.90;;;;;;5053581;28;20287;-75
2023/05/07 08:10:34;;;;;;;2.03;1.85;;;21.00;99.90;;;;;;5061224;28;20607;-74
2023/05/07 08:13:03;;;;;;;2.15;1.90;;;21.00;99.90;;;;;;5061402;28;20244;-75
2023/05/07 08:15:32;;;;;;;2.08;1.90;;;20.80;99.90;;;;;;5067775;28;20252;-76
2023/05/07 08:17:59;;;;;;;2.58;2.08;;;20.90;99.90;;;;;;5060927;28;20349;-74
2023/05/07 08:20:27;;;;;;;1.90;1.67;;;20.80;99.90;;;;;;5065827;28;20230;-75
2023/05/07 08:22:53;;;;;;;1.52;1.42;;;20.60;99.90;;;;;;5061370;28;20965;-75
2023/05/07 08:25:20;;;;;;;1.90;1.80;;;20.70;99.90;;;;;;5064145;28;20286;-78
2023/05/07 08:27:47;;;;;;;1.40;1.40;;;20.60;99.90;;;;;;5069401;28;20256;-77
2023/05/07 08:30:16;;;;;;;2.17;1.83;;;20.60;99.90;;;;;;5065966;28;20198;-74
2023/05/07 08:32:48;;;;;;;1.88;1.73;;;20.90;99.90;;;;;;5063316;28;20935;-74
2023/05/07 08:35:15;;;;;;;2.28;1.83;;;21.00;99.90;;;;;;5062214;28;20233;-75
2023/05/07 08:37:42;;;;;;;1.83;1.70;;;21.10;99.90;;;;;;5066497;28;20202;-76
2023/05/07 08:40:09;;;;;;;1.73;1.63;;;21.30;99.90;;;;;;5063042;28;20234;-75
2023/05/07 08:42:37;;;;;;;1.58;1.48;;;21.40;99.90;;;;;;5063240;28;20257;-75
2023/05/07 08:45:08;;;;;;;1.77;1.67;;;21.70;99.90;;;;;;5066074;28;20767;-76
2023/05/07 08:47:41;;;;;;;2.30;1.65;;;22.00;99.90;;;;;;5063758;28;20248;-75
2023/05/07 08:50:10;;;;;;;1.70;1.60;;;22.20;99.90;;;;;;5066410;28;20202;-76
2023/05/07 08:52:37;;;;;;;1.70;1.60;;;22.40;99.90;;;;;;5062314;28;20222;-76
2023/05/07 08:55:05;;;;;;;1.80;1.70;;;22.50;99.90;;;;;;5061124;28;20285;-76
2023/05/07 08:57:32;;;;;;;1.65;1.27;;;22.30;99.90;;;;;;5064495;28;20286;-75
2023/05/07 08:59:59;;;;;;;3.95;1.98;;;22.10;99.90;;;;;;5059286;28;20298;-76
2023/05/07 09:02:26;;;;;;;2.08;1.70;;;21.90;99.90;;;;;;5062615;28;20242;-75
2023/05/07 09:04:53;;;;;;;1.70;1.60;;;21.80;99.90;;;;;;5064179;28;20244;-76
2023/05/07 09:07:23;;;;;;;1.30;1.30;;;21.80;99.90;;;;;;5063099;28;20633;-76
2023/05/07 09:09:50;;;;;;;1.60;1.50;;;21.80;99.90;;;;;;5063034;28;20248;-76
2023/05/07 09:12:18;;;;;;;3.08;1.58;;;22.00;99.90;;;;;;5067140;28;20222;-77
2023/05/07 09:14:46;;;;;;;1.23;1.23;;;22.10;99.90;;;;;;5089619;28;20209;-78
2023/05/07 09:17:13;;;;;;;1.73;1.60;;;22.10;99.90;;;;;;5063603;28;20194;-75
2023/05/07 09:19:40;;;;;;;1.60;1.50;;;22.10;99.90;;;;;;5058632;28;20199;-77
2023/05/07 09:22:08;;;;;;;1.60;1.50;;;22.00;99.90;;;;;;5065735;28;20617;-76
2023/05/07 09:24:37;;;;;;;2.30;1.40;;;22.10;99.90;;;;;;5060524;28;20199;-76
2023/05/07 09:27:05;;;;;;;1.60;1.50;;;22.30;99.90;;;;;;5059570;28;20202;-76
2023/05/07 09:29:35;;;;;;;1.77;1.67;;;22.40;99.90;;;;;;5064921;28;20281;-75
2023/05/07 09:32:02;;;;;;;1.65;1.55;;;22.70;99.90;;;;;;5059596;28;20218;-78
2023/05/07 09:34:30;;;;;;;1.80;1.70;;;22.90;99.90;;;;;;5061667;28;20228;-77
2023/05/07 09:36:57;;;;;;;1.90;1.60;;;22.90;99.90;;;;;;5059935;28;20206;-76
2023/05/07 09:39:24;;;;;;;1.75;1.58;;;22.80;99.90;;;;;;5059396;28;20202;-78
2023/05/07 09:41:54;;;;;;;1.60;1.50;;;23.00;99.90;;;;;;5060315;28;20311;-78
2023/05/07 09:44:22;;;;;;;1.60;1.50;;;23.10;99.90;;;;;;5062181;28;20194;-77
2023/05/07 09:46:56;;;;;;;1.60;1.50;;;23.10;99.90;;;;;;5060343;28;20208;-75
2023/05/07 09:49:24;;;;;;;1.52;1.42;;;23.20;99.90;;;;;;5057447;28;20191;-75
2023/05/07 09:51:52;;;;;;;1.77;1.67;;;23.40;99.90;;;;;;5063063;28;20304;-78
2023/05/07 09:54:19;;;;;;;2.42;1.50;;;23.60;99.90;;;;;;5064887;28;20222;-74
2023/05/07 09:56:48;;;;;;;1.55;1.45;;;23.80;99.90;;;;;;5084162;28;20203;-75
2023/05/07 09:59:18;;;;;;;1.75;1.65;;;24.00;99.90;;;;;;5087482;28;20202;-78
2023/05/07 10:01:46;;;;;;;1.80;1.70;;;24.00;99.90;;;;;;5086893;28;20707;-75
2023/05/07 10:04:13;;;;;;;1.70;1.58;;;24.10;99.90;;;;;;5085633;28;20178;-76
2023/05/07 10:06:41;;;;;;;1.80;1.70;;;24.20;99.90;;;;;;5086308;28;20182;-75
2023/05/07 10:09:09;;;;;;;1.90;1.38;;;24.10;99.90;;;;;;5082912;28;20210;-76
2023/05/07 10:11:37;;;;;;;1.80;1.70;;;24.00;99.90;;;;;;5079314;28;20208;-75
2023/05/07 10:14:06;;;;;;;2.03;1.75;;;24.10;99.90;;;;;;5082605;28;20222;-76
2023/05/07 10:16:36;;;;;;;1.63;1.52;;;23.90;99.90;;;;;;5075416;28;20202;-74
2023/05/07 10:19:04;;;;;;;1.63;1.52;;;23.80;99.90;;;;;;5058359;28;20233;-75
2023/05/07 10:21:33;;;;;;;1.73;1.55;;;23.80;99.90;;;;;;5059375;28;20857;-75
2023/05/07 10:24:05;;;;;;;1.65;1.52;;;23.90;99.90;;;;;;5058852;28;20244;-76
2023/05/07 10:26:34;;;;;;;1.58;1.48;;;24.00;99.90;;;;;;5060670;28;20234;-75
2023/05/07 10:29:06;;;;;;;1.63;1.52;;;24.10;99.90;;;;;;5056441;28;20234;-75
2023/05/07 10:31:51;;;;;;;1.80;1.70;;;24.30;99.90;;;;;;5060322;28;20198;-75
2023/05/07 10:34:24;;;;;;;1.60;1.50;;;24.50;99.90;;;;;;5058737;28;20587;-76
2023/05/07 10:36:52;;;;;;;1.90;1.80;;;24.70;99.90;;;;;;5060740;28;20202;-76
2023/05/07 10:39:21;;;;;;;2.08;1.50;;;24.80;99.90;;;;;;5056908;28;20206;-75
2023/05/07 10:41:48;;;;;;;1.73;1.63;;;24.80;99.90;;;;;;5055333;28;20308;-76
2023/05/07 10:44:27;;;;;;;1.58;1.40;;;25.10;99.90;;;;;;5061321;28;20230;-77
2023/05/07 10:47:10;;;;;;;2.40;1.92;;;25.20;99.90;;;;;;5060394;28;20204;-75
2023/05/07 10:49:58;;;;;;;1.60;1.50;;;25.10;99.90;;;;;;5060325;28;20739;-75
2023/05/07 10:52:26;;;;;;;1.67;1.58;;;25.00;99.90;;;;;;5055888;28;20275;-76
2023/05/07 10:55:21;;;;;;;1.90;1.80;;;25.20;99.90;;;;;;5057259;28;20268;-76
2023/05/07 10:57:48;;;;;;;1.40;1.30;;;24.80;99.90;;;;;;5058231;28;20521;-76
2023/05/07 11:00:44;;;;;;;1.92;1.83;;;24.80;99.90;;;;;;5059228;28;20202;-76
2023/05/07 11:03:14;;;;;;;1.85;1.75;;;25.00;99.90;;;;;;5072248;28;20212;-76
2023/05/07 11:05:42;;;;;;;1.70;1.60;;;24.80;99.90;;;;;;5069263;28;20655;-77
2023/05/07 11:08:10;;;;;;;1.58;1.48;;;24.50;99.90;;;;;;5062338;28;20198;-78
2023/05/07 11:10:53;;;;;;;1.60;1.50;;;24.20;99.90;;;;;;5059048;28;20285;-78
2023/05/07 11:13:44;;;;;;;3.42;1.95;;;24.10;99.90;;;;;;5059877;28;20380;-77
2023/05/07 11:16:22;;;;;;;1.67;1.58;;;24.00;99.90;;;;;;5059891;28;20680;-77
2023/05/07 11:18:52;;;;;;;2.10;1.38;;;23.90;99.90;;;;;;5061367;28;20198;-76
2023/05/07 11:21:36;;;;;;;1.65;1.55;;;24.00;99.90;;;;;;5055917;28;20233;-76
2023/05/07 11:24:03;;;;;;;1.80;1.70;;;23.90;99.90;;;;;;5060365;28;20226;-77
2023/05/07 11:26:32;;;;;;;1.60;1.50;;;23.90;99.90;;;;;;5057374;28;20579;-76
2023/05/07 11:29:00;;;;;;;1.55;1.45;;;24.00;99.90;;;;;;5059077;28;20696;-74
2023/05/07 11:31:29;;;;;;;2.10;1.90;;;24.10;99.90;;;;;;5053453;28;20224;-76
2023/05/07 11:33:58;;;;;;;1.90;1.50;;;23.90;99.90;;;;;;5060065;28;20224;-75
2023/05/07 11:36:26;;;;;;;2.75;1.95;;;23.90;99.90;;;;;;5058906;28;20861;-76
2023/05/07 11:38:53;;;;;;;2.05;1.88;;;24.30;99.90;;;;;;5061591;28;20194;-76
2023/05/07 11:41:21;;;;;;;1.83;1.73;;;24.50;99.90;;;;;;5057952;28;20328;-80
2023/05/07 11:43:56;;;;;;;2.80;1.90;;;24.70;99.90;;;;;;5057515;28;20700;-78
2023/05/07 11:46:23;;;;;;;2.20;2.00;;;24.90;99.90;;;;;;5058191;28;20584;-79
2023/05/07 11:48:50;;;;;;;1.90;1.80;;;25.10;99.90;;;;;;5053467;28;20688;-76
2023/05/07 11:51:23;;;;;;;1.92;1.83;;;25.20;99.90;;;;;;5057012;28;20202;-76
2023/05/07 11:53:51;;;;;;;2.13;1.80;;;25.20;99.90;;;;;;5053315;28;20275;-76
2023/05/07 11:56:19;;;;;;;4.10;2.05;;;25.00;99.90;;;;;;5057817;28;20279;-76
2023/05/07 11:58:47;;;;;;;2.40;2.20;;;24.90;99.90;;;;;;5057210;28;20202;-80
2023/05/07 12:01:15;;;;;;;2.30;2.10;;;25.00;99.90;;;;;;5053173;28;20289;-77
2023/05/07 12:03:45;;;;;;;2.15;2.05;;;25.40;99.90;;;;;;5059281;28;20216;-76
2023/05/07 12:06:13;;;;;;;2.13;1.80;;;25.70;99.90;;;;;;5056616;28;20687;-77
2023/05/07 12:08:42;;;;;;;2.35;2.17;;;26.00;99.90;;;;;;5059850;28;20454;-75
2023/05/07 12:11:11;;;;;;;2.33;2.15;;;26.20;99.90;;;;;;5057685;28;20229;-81
2023/05/07 12:13:39;;;;;;;2.10;2.00;;;26.40;99.90;;;;;;5060480;28;20230;-73
2023/05/07 12:16:07;;;;;;;2.08;1.95;;;26.50;99.90;;;;;;5058797;28;20195;-73
2023/05/07 12:18:36;;;;;;;2.00;1.90;;;26.70;99.90;;;;;;5055123;28;20197;-74
2023/05/07 12:21:04;;;;;;;2.25;1.70;;;26.70;99.90;;;;;;5057249;28;20560;-74
2023/05/07 12:23:32;;;;;;;1.75;1.65;;;26.80;99.90;;;;;;5056102;28;20303;-73
2023/05/07 12:26:00;;;;;;;2.10;1.90;;;27.00;99.90;;;;;;5057537;28;20299;-74
2023/05/07 12:28:27;;;;;;;2.33;1.85;;;27.10;99.90;;;;;;5058629;28;20195;-73
2023/05/07 12:30:56;;;;;;;1.63;1.52;;;27.10;99.90;;;;;;5054352;28;20226;-72
2023/05/07 12:33:26;;;;;;;1.85;1.70;;;26.90;99.90;;;;;;5058072;28;20232;-73
2023/05/07 12:35:55;;;;;;;1.73;1.63;;;26.60;99.90;;;;;;5055492;28;20214;-74
2023/05/07 12:38:22;;;;;;;1.88;1.77;;;26.30;99.90;;;;;;5053336;28;20213;-74
2023/05/07 12:41:00;;;;;;;2.08;1.65;;;26.20;99.90;;;;;;5055587;28;20242;-73
2023/05/07 12:43:29;;;;;;;1.60;1.50;;;26.00;99.90;;;;;;5053955;28;20300;-74
2023/05/07 12:45:57;;;;;;;1.60;1.50;;;25.80;99.90;;;;;;5054276;28;20209;-72
2023/05/07 12:48:26;;;;;;;1.80;1.70;;;25.90;99.90;;;;;;5057327;28;20293;-73
2023/05/07 12:50:54;;;;;;;1.70;1.60;;;26.00;99.90;;;;;;5053923;28;21050;-74
2023/05/07 12:53:23;;;;;;;2.28;1.60;;;26.00;99.90;;;;;;5059374;28;20834;-73